createdAt,value
2023-01-18T00:01:36.324Z,79.78
2023-01-18T00:04:38.001Z,79.80
2023-01-18T00:07:39.552Z,79.77
2023-01-18T00:10:42.538Z,80.02
2023-01-18T00:13:44.705Z,80.04
2023-01-18T00:16:46.255Z,80.07
2023-01-18T00:19:47.880Z,80.13
2023-01-18T00:22:50.017Z,80.20
2023-01-18T00:25:51.577Z,80.10
2023-01-18T00:28:55.902Z,80.19
2023-01-18T00:31:57.492Z,80.10
2023-01-18T00:34:59.154Z,80.13
2023-01-18T00:38:00.775Z,80.13
2023-01-18T00:41:02.307Z,80.36
2023-01-18T00:44:04.251Z,79.92
2023-01-18T00:47:05.834Z,80.12
2023-01-18T00:50:08.168Z,80.01
2023-01-18T00:53:09.676Z,79.93
2023-01-18T00:56:14.738Z,79.84
2023-01-18T00:59:16.542Z,80.00
2023-01-18T01:02:18.407Z,80.03
2023-01-18T01:05:22.973Z,79.88
2023-01-18T01:08:24.790Z,80.07
2023-01-18T01:11:26.413Z,79.97
2023-01-18T01:14:28.268Z,79.87
2023-01-18T01:17:30.259Z,79.68
2023-01-18T01:20:31.877Z,79.90
2023-01-18T01:23:33.603Z,80.11
2023-01-18T01:26:35.407Z,79.88
2023-01-18T01:29:37.908Z,79.95
2023-01-18T01:32:39.546Z,80.17
2023-01-18T01:35:41.075Z,80.10
2023-01-18T01:38:42.731Z,80.10
2023-01-18T01:41:44.507Z,80.06
2023-01-18T01:44:47.672Z,80.13
2023-01-18T01:47:49.385Z,80.10
2023-01-18T01:50:50.869Z,80.45
2023-01-18T01:53:52.664Z,80.47
2023-01-18T01:57:01.227Z,80.65
2023-01-18T02:00:25.271Z,80.45
2023-01-18T02:03:26.913Z,80.54
2023-01-18T02:06:34.275Z,80.81
2023-01-18T02:09:36.149Z,80.66
2023-01-18T02:12:40.417Z,80.34
2023-01-18T02:15:57.001Z,80.48
2023-01-18T02:19:00.556Z,80.48
2023-01-18T02:22:09.873Z,80.72
2023-01-18T02:25:30.870Z,80.36
2023-01-18T02:28:33.990Z,80.36
2023-01-18T02:31:47.263Z,80.84
2023-01-18T02:34:55.713Z,80.58
2023-01-18T02:38:10.886Z,80.77
2023-01-18T02:41:17.395Z,80.75
2023-01-18T02:44:24.170Z,80.58
2023-01-18T02:47:26.356Z,80.81
2023-01-18T02:50:28.269Z,80.94
2023-01-18T02:53:30.960Z,80.70
2023-01-18T02:56:42.857Z,80.78
2023-01-18T02:59:46.293Z,80.76
2023-01-18T03:02:48.524Z,80.83
2023-01-18T03:05:52.440Z,80.95
2023-01-18T03:08:54.788Z,80.94
2023-01-18T03:12:11.868Z,80.94
2023-01-18T03:15:25.987Z,81.06
2023-01-18T03:18:32.059Z,80.68
2023-01-18T03:21:38.042Z,81.18
2023-01-18T03:24:39.636Z,80.82
2023-01-18T03:27:43.009Z,80.89
2023-01-18T03:30:45.287Z,80.80
2023-01-18T03:33:52.331Z,80.65
2023-01-18T03:36:56.149Z,81.11
2023-01-18T03:40:03.322Z,80.99
2023-01-18T03:43:10.795Z,80.95
2023-01-18T03:46:14.238Z,80.80
2023-01-18T03:49:16.403Z,80.75
2023-01-18T03:52:23.950Z,80.80
2023-01-18T03:55:35.296Z,80.92
2023-01-18T03:58:40.408Z,81.03
2023-01-18T04:01:42.434Z,81.33
2023-01-18T04:04:44.061Z,80.93
2023-01-18T04:07:45.603Z,80.93
2023-01-18T04:10:47.240Z,81.11
2023-01-18T04:13:49.190Z,80.99
2023-01-18T04:16:50.925Z,80.83
2023-01-18T04:19:52.837Z,81.08
2023-01-18T04:22:57.070Z,81.01
2023-01-18T04:25:58.899Z,80.81
2023-01-18T04:29:00.941Z,80.91
2023-01-18T04:32:02.726Z,80.89
2023-01-18T04:35:04.838Z,80.94
2023-01-18T04:38:06.418Z,80.77
2023-01-18T04:41:08.048Z,80.96
2023-01-18T04:44:10.111Z,81.16
2023-01-18T04:47:11.735Z,81.15
2023-01-18T04:50:15.584Z,81.18
2023-01-18T04:53:18.194Z,80.83
2023-01-18T04:56:19.812Z,80.99
2023-01-18T04:59:21.403Z,81.21
2023-01-18T05:02:22.949Z,81.21
2023-01-18T05:05:26.342Z,80.83
2023-01-18T05:08:28.087Z,80.04
2023-01-18T05:11:29.587Z,79.57
2023-01-18T05:14:31.200Z,80.34
2023-01-18T05:17:33.533Z,80.66
2023-01-18T05:20:35.200Z,80.56
2023-01-18T05:23:36.807Z,80.71
2023-01-18T05:26:38.389Z,80.98
2023-01-18T05:29:40.188Z,81.05
2023-01-18T05:32:41.899Z,80.95
2023-01-18T05:35:54.439Z,81.35
2023-01-18T05:38:56.104Z,82.01
2023-01-18T05:42:00.111Z,82.42
2023-01-18T05:45:01.932Z,81.66
2023-01-18T05:48:03.801Z,81.17
2023-01-18T05:51:09.534Z,80.91
2023-01-18T05:54:11.269Z,80.98
2023-01-18T05:57:12.756Z,81.25
2023-01-18T06:00:14.464Z,81.31
2023-01-18T06:03:16.023Z,81.63
2023-01-18T06:06:17.839Z,81.65
2023-01-18T06:09:19.407Z,81.46
2023-01-18T06:12:21.141Z,81.46
2023-01-18T06:15:22.713Z,81.50
2023-01-18T06:18:26.614Z,81.65
2023-01-18T06:21:28.215Z,81.68
2023-01-18T06:24:29.925Z,82.74
2023-01-18T06:27:31.434Z,82.32
2023-01-18T06:30:33.115Z,81.75
2023-01-18T06:33:34.801Z,81.43
2023-01-18T06:36:37.532Z,81.97
2023-01-18T06:39:39.224Z,82.09
2023-01-18T06:42:41.558Z,81.96
2023-01-18T06:45:43.200Z,82.06
2023-01-18T06:48:44.875Z,82.10
2023-01-18T06:51:46.622Z,82.10
2023-01-18T06:54:48.262Z,81.94
2023-01-18T06:57:49.920Z,81.86
2023-01-18T07:00:56.252Z,81.91
2023-01-18T07:03:57.936Z,81.99
2023-01-18T07:06:59.534Z,81.76
2023-01-18T07:10:01.057Z,82.03
2023-01-18T07:13:02.654Z,82.05
2023-01-18T07:16:04.376Z,82.29
2023-01-18T07:19:05.917Z,82.18
2023-01-18T07:22:07.449Z,81.97
2023-01-18T07:25:09.552Z,82.21
2023-01-18T07:28:11.161Z,82.17
2023-01-18T07:31:13.676Z,82.13
2023-01-18T07:34:15.381Z,82.04
2023-01-18T07:37:16.887Z,82.00
2023-01-18T07:40:19.793Z,82.06
2023-01-18T07:43:21.371Z,82.38
2023-01-18T07:46:22.939Z,81.83
2023-01-18T07:49:24.743Z,81.87
2023-01-18T07:52:26.381Z,82.02
2023-01-18T07:55:27.988Z,82.32
2023-01-18T07:58:30.211Z,82.32
2023-01-18T08:01:32.106Z,82.68
2023-01-18T08:04:33.708Z,82.57
2023-01-18T08:07:35.433Z,82.59
2023-01-18T08:10:37.558Z,82.39
2023-01-18T08:13:39.255Z,82.44
2023-01-18T08:16:40.691Z,82.45
2023-01-18T08:19:42.235Z,82.17
2023-01-18T08:22:43.785Z,82.55
2023-01-18T08:25:45.825Z,82.47
2023-01-18T08:28:47.502Z,82.21
2023-01-18T08:31:52.516Z,82.24
2023-01-18T08:34:54.139Z,82.20
2023-01-18T08:37:56.077Z,82.22
2023-01-18T08:40:57.837Z,82.17
2023-01-18T08:43:59.580Z,82.34
2023-01-18T08:47:01.274Z,82.18
2023-01-18T08:50:02.884Z,82.16
2023-01-18T08:53:04.795Z,82.24
2023-01-18T08:56:06.582Z,82.21
2023-01-18T08:59:09.274Z,82.32
2023-01-18T09:02:11.442Z,82.16
2023-01-18T09:05:13.112Z,82.58
2023-01-18T09:08:14.957Z,82.53
2023-01-18T09:11:17.732Z,82.67
2023-01-18T09:14:19.661Z,82.84
2023-01-18T09:17:21.255Z,82.57
2023-01-18T09:20:22.902Z,83.04
2023-01-18T09:23:25.457Z,82.88
2023-01-18T09:26:27.985Z,83.03
2023-01-18T09:29:29.733Z,83.00
2023-01-18T09:32:31.272Z,82.78
2023-01-18T09:35:33.108Z,82.63
2023-01-18T09:38:34.771Z,82.97
2023-01-18T09:41:44.953Z,82.58
2023-01-18T09:44:49.196Z,82.46
2023-01-18T09:47:52.828Z,82.59
2023-01-18T09:50:55.344Z,82.42
2023-01-18T09:54:11.288Z,82.43
2023-01-18T09:57:43.742Z,82.48
2023-01-18T10:00:47.831Z,82.62
2023-01-18T10:03:53.660Z,83.16
2023-01-18T10:07:02.540Z,82.97
2023-01-18T10:10:05.269Z,83.41
2023-01-18T10:13:37.981Z,83.38
2023-01-18T10:16:39.652Z,83.76
2023-01-18T10:19:41.256Z,83.82
2023-01-18T10:22:52.504Z,84.02
2023-01-18T10:25:56.267Z,83.84
2023-01-18T10:29:07.043Z,84.03
2023-01-18T10:32:20.955Z,84.27
2023-01-18T10:35:38.932Z,83.81
2023-01-18T10:38:41.032Z,83.71
2023-01-18T10:41:43.217Z,83.68
2023-01-18T10:44:45.231Z,83.44
2023-01-18T10:47:51.554Z,83.69
2023-01-18T10:50:55.828Z,84.01
2023-01-18T10:53:58.033Z,83.71
2023-01-18T10:57:05.007Z,84.04
2023-01-18T11:00:13.613Z,84.16
2023-01-18T11:03:15.201Z,84.84
2023-01-18T11:06:17.585Z,84.88
2023-01-18T11:09:34.610Z,84.88
2023-01-18T11:12:44.651Z,84.71
2023-01-18T11:15:46.172Z,84.71
2023-01-18T11:19:17.508Z,84.80
2023-01-18T11:22:26.630Z,84.75
2023-01-18T11:26:05.020Z,84.81
2023-01-18T11:29:07.403Z,84.49
2023-01-18T11:32:29.720Z,84.08
2023-01-18T11:35:34.700Z,84.78
2023-01-18T11:38:36.356Z,84.77
2023-01-18T11:41:37.916Z,85.16
2023-01-18T11:44:44.781Z,85.14
2023-01-18T11:48:00.712Z,84.96
2023-01-18T11:51:07.406Z,84.86
2023-01-18T11:54:24.893Z,84.41
2023-01-18T11:57:26.448Z,84.12
2023-01-18T12:00:32.238Z,84.38
2023-01-18T12:03:48.027Z,84.38
2023-01-18T12:07:27.329Z,84.20
2023-01-18T12:10:50.801Z,84.45
2023-01-18T12:14:02.334Z,84.16
2023-01-18T12:17:19.191Z,84.02
2023-01-18T12:20:29.800Z,83.83
2023-01-18T12:23:59.232Z,83.38
2023-01-18T12:27:12.037Z,83.21
2023-01-18T12:30:52.459Z,83.05
2023-01-18T12:34:14.364Z,82.93
2023-01-18T12:37:21.991Z,82.71
2023-01-18T12:40:42.167Z,82.19
2023-01-18T12:43:52.739Z,81.88
2023-01-18T12:47:12.493Z,81.96
2023-01-18T12:50:22.272Z,82.23
2023-01-18T12:53:30.724Z,82.14
2023-01-18T12:56:37.794Z,82.16
2023-01-18T12:59:43.165Z,81.81
2023-01-18T13:02:48.481Z,81.37
2023-01-18T13:05:59.019Z,81.09
2023-01-18T13:09:06.565Z,81.52
2023-01-18T13:12:08.522Z,80.79
2023-01-18T13:15:47.364Z,80.52
2023-01-18T13:18:55.113Z,80.68
2023-01-18T13:22:05.470Z,80.72
2023-01-18T13:25:25.294Z,80.82
2023-01-18T13:28:27.472Z,81.25
2023-01-18T13:31:32.213Z,80.98
2023-01-18T13:34:47.660Z,80.95
2023-01-18T13:37:56.578Z,81.40
2023-01-18T13:41:03.307Z,81.58
2023-01-18T13:44:13.122Z,81.71
2023-01-18T13:47:36.940Z,81.56
2023-01-18T13:50:41.720Z,81.68
2023-01-18T13:53:50.164Z,81.75
2023-01-18T13:57:00.667Z,81.79
2023-01-18T14:00:04.038Z,81.78
2023-01-18T14:03:07.799Z,81.81
2023-01-18T14:06:16.865Z,81.96
2023-01-18T14:09:29.396Z,82.03
2023-01-18T14:12:49.103Z,82.22
2023-01-18T14:15:54.638Z,82.07
2023-01-18T14:19:11.696Z,82.14
2023-01-18T14:22:22.661Z,81.71
2023-01-18T14:25:39.537Z,81.81
2023-01-18T14:28:47.071Z,81.74
2023-01-18T14:31:52.153Z,81.62
2023-01-18T14:34:58.793Z,81.63
2023-01-18T14:38:18.296Z,81.81
2023-01-18T14:41:20.695Z,81.60
2023-01-18T14:44:24.980Z,81.72
2023-01-18T14:47:30.697Z,81.66
2023-01-18T14:50:36.290Z,81.97
2023-01-18T14:53:45.801Z,82.08
2023-01-18T14:56:47.504Z,82.41
2023-01-18T14:59:53.057Z,82.32
2023-01-18T15:02:54.650Z,82.39
2023-01-18T15:06:03.600Z,82.69
2023-01-18T15:09:07.249Z,82.85
2023-01-18T15:12:11.762Z,82.66
2023-01-18T15:15:32.490Z,82.67
2023-01-18T15:18:34.191Z,82.42
2023-01-18T15:21:35.776Z,82.37
2023-01-18T15:24:39.093Z,82.22
2023-01-18T15:27:42.246Z,82.17
2023-01-18T15:30:52.551Z,82.07
2023-01-18T15:33:54.327Z,82.16
2023-01-18T15:36:56.476Z,82.12
2023-01-18T15:39:58.234Z,82.10
2023-01-18T15:43:07.556Z,82.08
2023-01-18T15:46:12.064Z,82.05
2023-01-18T15:49:14.475Z,81.98
2023-01-18T15:52:16.918Z,82.16
2023-01-18T15:55:20.190Z,82.08
2023-01-18T15:58:26.714Z,82.27
2023-01-18T16:01:32.618Z,82.31
2023-01-18T16:04:34.921Z,82.13
2023-01-18T16:07:39.305Z,82.25
2023-01-18T16:10:53.709Z,82.02
2023-01-18T16:14:00.365Z,82.10
2023-01-18T16:17:08.050Z,82.20
2023-01-18T16:20:15.507Z,82.16
2023-01-18T16:23:18.646Z,81.97
2023-01-18T16:26:21.320Z,81.92
2023-01-18T16:29:23.152Z,82.02
2023-01-18T16:32:24.881Z,82.08
2023-01-18T16:35:26.465Z,82.11
2023-01-18T16:38:28.203Z,81.97
2023-01-18T16:41:29.963Z,81.91
2023-01-18T16:44:31.748Z,81.82
2023-01-18T16:47:33.540Z,82.02
2023-01-18T16:50:35.129Z,81.75
2023-01-18T16:53:36.718Z,81.49
2023-01-18T16:56:38.336Z,81.77
2023-01-18T16:59:40.088Z,81.94
2023-01-18T17:02:41.625Z,82.15
2023-01-18T17:05:43.468Z,82.12
2023-01-18T17:08:45.304Z,82.40
2023-01-18T17:11:48.384Z,82.53
2023-01-18T17:14:50.009Z,82.37
2023-01-18T17:17:51.659Z,82.46
2023-01-18T17:20:54.221Z,82.25
2023-01-18T17:23:55.927Z,82.00
2023-01-18T17:26:57.567Z,82.15
2023-01-18T17:29:59.163Z,82.24
2023-01-18T17:33:01.471Z,81.86
2023-01-18T17:39:11.261Z,81.07
2023-01-18T17:42:19.033Z,81.04
2023-01-18T17:45:24.446Z,81.52
2023-01-18T17:48:26.287Z,81.48
2023-01-18T17:51:27.754Z,81.55
2023-01-18T17:54:29.340Z,82.14
2023-01-18T17:57:30.954Z,82.22
2023-01-18T18:00:32.574Z,82.48
2023-01-18T18:03:34.280Z,82.15
2023-01-18T18:06:38.219Z,82.24
2023-01-18T18:09:42.012Z,81.92
2023-01-18T18:12:43.572Z,81.94
2023-01-18T18:15:46.443Z,82.37
2023-01-18T18:18:48.195Z,82.47
2023-01-18T18:21:49.694Z,82.22
2023-01-18T18:24:51.598Z,81.63
2023-01-18T18:27:53.128Z,82.20
2023-01-18T18:30:55.742Z,81.58
2023-01-18T18:33:57.504Z,81.96
2023-01-18T18:36:59.217Z,82.32
2023-01-18T18:40:00.817Z,82.67
2023-01-18T18:43:03.251Z,82.13
2023-01-18T18:46:05.701Z,82.28
2023-01-18T18:49:07.456Z,82.26
2023-01-18T18:52:09.436Z,82.31
2023-01-18T18:55:11.333Z,82.45
2023-01-18T18:58:12.883Z,82.22
2023-01-18T19:01:23.670Z,82.35
2023-01-18T19:04:25.793Z,82.74
2023-01-18T19:07:27.508Z,82.53
2023-01-18T19:10:29.217Z,82.82
2023-01-18T19:13:30.804Z,82.35
2023-01-18T19:16:32.496Z,82.31
2023-01-18T19:19:34.001Z,82.37
2023-01-18T19:22:37.757Z,82.20
2023-01-18T19:25:39.863Z,82.30
2023-01-18T19:28:41.597Z,82.32
2023-01-18T19:31:43.649Z,82.79
2023-01-18T19:34:45.185Z,83.20
2023-01-18T19:37:47.764Z,82.64
2023-01-18T19:40:49.560Z,82.04
2023-01-18T19:43:51.188Z,82.12
2023-01-18T19:46:52.750Z,82.21
2023-01-18T19:49:54.452Z,81.93
2023-01-18T19:52:56.602Z,82.44
2023-01-18T19:56:06.980Z,82.62
2023-01-18T19:59:09.319Z,81.96
2023-01-18T20:02:11.227Z,82.72
2023-01-18T20:05:12.929Z,82.70
2023-01-18T20:08:14.456Z,82.42
2023-01-18T20:11:16.215Z,82.31
2023-01-18T20:14:17.868Z,82.27
2023-01-18T20:17:19.681Z,82.51
2023-01-18T20:20:31.744Z,82.62
2023-01-18T20:23:34.483Z,82.79
2023-01-18T20:26:38.143Z,82.85
2023-01-18T20:29:41.546Z,82.96
2023-01-18T20:32:43.198Z,82.98
2023-01-18T20:35:45.731Z,83.07
2023-01-18T20:38:47.392Z,82.91
2023-01-18T20:41:48.904Z,82.73
2023-01-18T20:44:50.529Z,82.44
2023-01-18T20:47:52.037Z,82.14
2023-01-18T20:50:53.663Z,82.09
2023-01-18T20:53:55.431Z,82.40
2023-01-18T20:56:56.903Z,82.48
2023-01-18T20:59:58.613Z,82.85
2023-01-18T21:03:00.568Z,82.54
2023-01-18T21:06:02.527Z,82.55
2023-01-18T21:09:04.238Z,82.63
2023-01-18T21:12:05.888Z,82.83
2023-01-18T21:15:07.812Z,82.43
2023-01-18T21:18:09.653Z,82.70
2023-01-18T21:21:11.852Z,82.91
2023-01-18T21:24:13.601Z,82.97
2023-01-18T21:27:15.390Z,83.48
2023-01-18T21:30:20.571Z,83.11
2023-01-18T21:33:23.504Z,83.22
2023-01-18T21:36:25.378Z,83.38
2023-01-18T21:39:27.107Z,83.29
2023-01-18T21:42:28.836Z,83.11
2023-01-18T21:45:30.857Z,82.93
2023-01-18T21:48:32.519Z,82.98
2023-01-18T21:51:34.255Z,82.90
2023-01-18T21:54:35.751Z,82.73
2023-01-18T21:57:37.328Z,82.90
2023-01-18T22:00:39.844Z,82.79
2023-01-18T22:03:41.672Z,83.10
2023-01-18T22:06:43.134Z,83.12
2023-01-18T22:09:55.288Z,83.12
2023-01-18T22:13:04.521Z,83.10
2023-01-18T22:16:06.709Z,83.07
2023-01-18T22:19:12.991Z,83.15
2023-01-18T22:22:14.980Z,82.94
2023-01-18T22:25:16.648Z,83.00
2023-01-18T22:28:18.161Z,83.14
2023-01-18T22:31:19.861Z,82.89
2023-01-18T22:34:21.541Z,82.89
2023-01-18T22:37:23.173Z,82.69
2023-01-18T22:40:24.756Z,83.00
2023-01-18T22:43:26.326Z,82.90
2023-01-18T22:46:28.088Z,83.00
2023-01-18T22:49:29.605Z,82.66
2023-01-18T22:52:31.422Z,83.01
2023-01-18T22:55:33.249Z,83.01
2023-01-18T22:58:35.197Z,82.87
2023-01-18T23:01:36.820Z,83.53
2023-01-18T23:04:38.883Z,83.04
2023-01-18T23:07:40.355Z,83.56
2023-01-18T23:10:42.292Z,83.20
2023-01-18T23:13:47.600Z,82.92
2023-01-18T23:16:49.206Z,82.78
2023-01-18T23:19:50.784Z,83.29
2023-01-18T23:22:52.348Z,82.86
2023-01-18T23:25:55.797Z,83.10
2023-01-18T23:28:57.419Z,82.95
2023-01-18T23:31:59.309Z,83.21
2023-01-18T23:35:01.177Z,83.30
2023-01-18T23:38:02.975Z,83.01
2023-01-18T23:41:04.957Z,83.23
2023-01-18T23:44:06.619Z,83.30
2023-01-18T23:47:08.272Z,83.33
2023-01-18T23:50:10.441Z,83.09
2023-01-18T23:53:13.503Z,83.27
2023-01-18T23:56:15.179Z,83.15
2023-01-18T23:59:16.785Z,83.10
